sensor_id;sensor_type;location;lat;lon;timestamp;P1;durP1;ratioP1;P2;durP2;ratioP2
75446;SDS011;64024;55.820;37.574;2024-02-26T00:00:32;3.00;;;1.77;;
75446;SDS011;64024;55.820;37.574;2024-02-26T00:03:00;3.00;;;1.50;;
75446;SDS011;64024;55.820;37.574;2024-02-26T00:05:26;2.33;;;1.20;;
75446;SDS011;64024;55.820;37.574;2024-02-26T00:07:52;2.25;;;1.58;;
75446;SDS011;64024;55.820;37.574;2024-02-26T00:10:18;2.60;;;1.40;;
75446;SDS011;64024;55.820;37.574;2024-02-26T00:12:44;2.20;;;1.30;;
75446;SDS011;64024;55.820;37.574;2024-02-26T00:15:09;2.42;;;1.48;;
75446;SDS011;64024;55.820;37.574;2024-02-26T00:17:36;2.20;;;1.42;;
75446;SDS011;64024;55.820;37.574;2024-02-26T00:20:02;3.38;;;1.50;;
75446;SDS011;64024;55.820;37.574;2024-02-26T00:22:33;2.78;;;1.60;;
75446;SDS011;64024;55.820;37.574;2024-02-26T00:24:59;2.50;;;1.48;;
75446;SDS011;64024;55.820;37.574;2024-02-26T00:27:24;2.03;;;1.20;;
75446;SDS011;64024;55.820;37.574;2024-02-26T00:29:50;2.25;;;1.20;;
75446;SDS011;64024;55.820;37.574;2024-02-26T00:32:16;3.08;;;1.60;;
75446;SDS011;64024;55.820;37.574;2024-02-26T00:34:41;2.22;;;1.40;;
75446;SDS011;64024;55.820;37.574;2024-02-26T00:37:07;1.92;;;1.20;;
75446;SDS011;64024;55.820;37.574;2024-02-26T00:39:33;2.30;;;1.30;;
75446;SDS011;64024;55.820;37.574;2024-02-26T00:41:58;2.22;;;1.30;;
75446;SDS011;64024;55.820;37.574;2024-02-26T00:44:24;2.47;;;1.20;;
75446;SDS011;64024;55.820;37.574;2024-02-26T00:46:49;3.83;;;1.50;;
75446;SDS011;64024;55.820;37.574;2024-02-26T00:49:15;1.88;;;1.27;;
75446;SDS011;64024;55.820;37.574;2024-02-26T00:51:41;3.67;;;1.33;;
75446;SDS011;64024;55.820;37.574;2024-02-26T00:54:07;1.95;;;1.33;;
75446;SDS011;64024;55.820;37.574;2024-02-26T00:56:32;2.08;;;1.40;;
75446;SDS011;64024;55.820;37.574;2024-02-26T00:58:58;3.97;;;1.55;;
75446;SDS011;64024;55.820;37.574;2024-02-26T01:01:24;2.03;;;1.17;;
75446;SDS011;64024;55.820;37.574;2024-02-26T01:03:50;1.77;;;1.10;;
75446;SDS011;64024;55.820;37.574;2024-02-26T01:06:15;2.03;;;1.40;;
75446;SDS011;64024;55.820;37.574;2024-02-26T01:08:41;2.20;;;1.15;;
75446;SDS011;64024;55.820;37.574;2024-02-26T01:11:07;2.47;;;1.10;;
75446;SDS011;64024;55.820;37.574;2024-02-26T01:13:33;1.92;;;1.38;;
75446;SDS011;64024;55.820;37.574;2024-02-26T01:15:58;2.17;;;1.23;;
75446;SDS011;64024;55.820;37.574;2024-02-26T01:18:25;2.55;;;1.38;;
75446;SDS011;64024;55.820;37.574;2024-02-26T01:20:51;1.95;;;1.30;;
75446;SDS011;64024;55.820;37.574;2024-02-26T01:23:19;2.47;;;1.42;;
75446;SDS011;64024;55.820;37.574;2024-02-26T01:25:45;1.88;;;1.08;;
75446;SDS011;64024;55.820;37.574;2024-02-26T01:28:11;2.45;;;1.38;;
75446;SDS011;64024;55.820;37.574;2024-02-26T01:30:36;1.92;;;1.23;;
75446;SDS011;64024;55.820;37.574;2024-02-26T01:33:02;2.30;;;1.33;;
75446;SDS011;64024;55.820;37.574;2024-02-26T01:35:29;2.00;;;1.20;;
75446;SDS011;64024;55.820;37.574;2024-02-26T01:37:55;1.80;;;1.10;;
75446;SDS011;64024;55.820;37.574;2024-02-26T01:40:21;2.35;;;1.42;;
75446;SDS011;64024;55.820;37.574;2024-02-26T01:42:47;1.70;;;0.90;;
75446;SDS011;64024;55.820;37.574;2024-02-26T01:45:16;2.30;;;1.52;;
75446;SDS011;64024;55.820;37.574;2024-02-26T01:47:51;2.25;;;1.33;;
75446;SDS011;64024;55.820;37.574;2024-02-26T01:50:17;2.80;;;1.20;;
75446;SDS011;64024;55.820;37.574;2024-02-26T01:52:44;2.67;;;1.20;;
75446;SDS011;64024;55.820;37.574;2024-02-26T01:55:14;2.35;;;1.15;;
75446;SDS011;64024;55.820;37.574;2024-02-26T01:57:43;1.67;;;1.10;;
75446;SDS011;64024;55.820;37.574;2024-02-26T02:00:10;2.35;;;1.15;;
75446;SDS011;64024;55.820;37.574;2024-02-26T02:02:36;2.45;;;1.20;;
75446;SDS011;64024;55.820;37.574;2024-02-26T02:05:04;2.28;;;1.10;;
75446;SDS011;64024;55.820;37.574;2024-02-26T02:07:31;1.92;;;0.90;;
75446;SDS011;64024;55.820;37.574;2024-02-26T02:09:57;3.20;;;0.95;;
75446;SDS011;64024;55.820;37.574;2024-02-26T02:12:23;2.55;;;1.10;;
75446;SDS011;64024;55.820;37.574;2024-02-26T02:14:50;2.65;;;1.10;;
75446;SDS011;64024;55.820;37.574;2024-02-26T02:17:15;1.90;;;0.93;;
75446;SDS011;64024;55.820;37.574;2024-02-26T02:19:41;2.17;;;1.17;;
75446;SDS011;64024;55.820;37.574;2024-02-26T02:22:07;2.63;;;1.10;;
75446;SDS011;64024;55.820;37.574;2024-02-26T02:24:32;2.30;;;1.23;;
75446;SDS011;64024;55.820;37.574;2024-02-26T02:26:58;1.95;;;1.08;;
75446;SDS011;64024;55.820;37.574;2024-02-26T02:29:24;1.90;;;1.08;;
75446;SDS011;64024;55.820;37.574;2024-02-26T02:31:53;1.98;;;1.02;;
75446;SDS011;64024;55.820;37.574;2024-02-26T02:34:19;2.35;;;1.00;;
75446;SDS011;64024;55.820;37.574;2024-02-26T02:36:52;2.35;;;0.93;;
75446;SDS011;64024;55.820;37.574;2024-02-26T02:39:19;1.90;;;1.10;;
75446;SDS011;64024;55.820;37.574;2024-02-26T02:41:45;1.58;;;0.90;;
75446;SDS011;64024;55.820;37.574;2024-02-26T02:44:11;1.20;;;0.80;;
75446;SDS011;64024;55.820;37.574;2024-02-26T02:46:37;1.90;;;1.00;;
75446;SDS011;64024;55.820;37.574;2024-02-26T02:49:03;1.77;;;1.00;;
75446;SDS011;64024;55.820;37.574;2024-02-26T02:51:29;2.08;;;1.05;;
75446;SDS011;64024;55.820;37.574;2024-02-26T02:53:55;2.30;;;1.13;;
75446;SDS011;64024;55.820;37.574;2024-02-26T02:56:20;1.95;;;1.00;;
75446;SDS011;64024;55.820;37.574;2024-02-26T02:58:46;2.03;;;0.80;;
75446;SDS011;64024;55.820;37.574;2024-02-26T03:01:13;3.15;;;1.15;;
75446;SDS011;64024;55.820;37.574;2024-02-26T03:03:38;2.83;;;1.08;;
75446;SDS011;64024;55.820;37.574;2024-02-26T03:06:04;2.22;;;1.20;;
75446;SDS011;64024;55.820;37.574;2024-02-26T03:08:29;2.00;;;1.10;;
75446;SDS011;64024;55.820;37.574;2024-02-26T03:10:57;3.25;;;1.30;;
75446;SDS011;64024;55.820;37.574;2024-02-26T03:13:23;2.50;;;1.30;;
75446;SDS011;64024;55.820;37.574;2024-02-26T03:15:49;2.55;;;1.58;;
75446;SDS011;64024;55.820;37.574;2024-02-26T03:18:15;4.53;;;1.38;;
75446;SDS011;64024;55.820;37.574;2024-02-26T03:20:41;3.53;;;1.40;;
75446;SDS011;64024;55.820;37.574;2024-02-26T03:23:06;3.45;;;1.33;;
75446;SDS011;64024;55.820;37.574;2024-02-26T03:25:34;2.78;;;1.00;;
75446;SDS011;64024;55.820;37.574;2024-02-26T03:28:00;1.92;;;1.10;;
75446;SDS011;64024;55.820;37.574;2024-02-26T03:30:26;3.40;;;1.23;;
75446;SDS011;64024;55.820;37.574;2024-02-26T03:32:51;2.88;;;1.77;;
75446;SDS011;64024;55.820;37.574;2024-02-26T03:35:17;1.60;;;0.90;;
75446;SDS011;64024;55.820;37.574;2024-02-26T03:37:43;2.95;;;1.20;;
75446;SDS011;64024;55.820;37.574;2024-02-26T03:40:08;2.00;;;1.05;;
75446;SDS011;64024;55.820;37.574;2024-02-26T03:42:34;1.60;;;0.90;;
75446;SDS011;64024;55.820;37.574;2024-02-26T03:45:00;2.35;;;1.02;;
75446;SDS011;64024;55.820;37.574;2024-02-26T03:47:26;3.38;;;0.90;;
75446;SDS011;64024;55.820;37.574;2024-02-26T03:49:51;1.98;;;1.00;;
75446;SDS011;64024;55.820;37.574;2024-02-26T03:52:17;4.57;;;2.53;;
75446;SDS011;64024;55.820;37.574;2024-02-26T03:54:43;2.47;;;1.00;;
75446;SDS011;64024;55.820;37.574;2024-02-26T03:57:08;2.17;;;0.95;;
75446;SDS011;64024;55.820;37.574;2024-02-26T03:59:34;1.40;;;1.05;;
75446;SDS011;64024;55.820;37.574;2024-02-26T04:02:00;3.30;;;1.13;;
75446;SDS011;64024;55.820;37.574;2024-02-26T04:04:27;3.47;;;1.17;;
75446;SDS011;64024;55.820;37.574;2024-02-26T04:06:52;5.03;;;1.15;;
75446;SDS011;64024;55.820;37.574;2024-02-26T04:09:18;1.80;;;0.90;;
75446;SDS011;64024;55.820;37.574;2024-02-26T04:11:44;2.72;;;1.02;;
75446;SDS011;64024;55.820;37.574;2024-02-26T04:14:09;1.98;;;0.93;;
75446;SDS011;64024;55.820;37.574;2024-02-26T04:16:37;1.95;;;0.90;;
75446;SDS011;64024;55.820;37.574;2024-02-26T04:19:04;1.98;;;1.35;;
75446;SDS011;64024;55.820;37.574;2024-02-26T04:21:29;2.25;;;1.10;;
75446;SDS011;64024;55.820;37.574;2024-02-26T04:23:55;2.22;;;1.10;;
75446;SDS011;64024;55.820;37.574;2024-02-26T04:26:21;1.90;;;1.10;;
75446;SDS011;64024;55.820;37.574;2024-02-26T04:28:47;2.95;;;1.15;;
75446;SDS011;64024;55.820;37.574;2024-02-26T04:31:12;1.80;;;1.00;;
75446;SDS011;64024;55.820;37.574;2024-02-26T04:33:38;2.50;;;1.27;;
75446;SDS011;64024;55.820;37.574;2024-02-26T04:36:04;2.72;;;1.10;;
75446;SDS011;64024;55.820;37.574;2024-02-26T04:38:30;2.78;;;1.17;;
75446;SDS011;64024;55.820;37.574;2024-02-26T04:40:55;2.60;;;1.33;;
75446;SDS011;64024;55.820;37.574;2024-02-26T04:43:21;1.98;;;0.90;;
75446;SDS011;64024;55.820;37.574;2024-02-26T04:45:47;1.95;;;1.15;;
75446;SDS011;64024;55.820;37.574;2024-02-26T04:48:13;2.08;;;1.30;;
75446;SDS011;64024;55.820;37.574;2024-02-26T04:50:38;2.00;;;1.10;;
75446;SDS011;64024;55.820;37.574;2024-02-26T04:53:04;2.85;;;1.05;;
75446;SDS011;64024;55.820;37.574;2024-02-26T04:55:30;2.20;;;1.27;;
75446;SDS011;64024;55.820;37.574;2024-02-26T04:57:56;1.60;;;1.02;;
75446;SDS011;64024;55.820;37.574;2024-02-26T05:00:22;2.03;;;1.00;;
75446;SDS011;64024;55.820;37.574;2024-02-26T05:02:47;2.97;;;1.13;;
75446;SDS011;64024;55.820;37.574;2024-02-26T05:05:13;2.03;;;0.88;;
75446;SDS011;64024;55.820;37.574;2024-02-26T05:07:40;1.83;;;0.98;;
75446;SDS011;64024;55.820;37.574;2024-02-26T05:10:07;2.10;;;0.85;;
75446;SDS011;64024;55.820;37.574;2024-02-26T05:12:34;1.67;;;0.75;;
75446;SDS011;64024;55.820;37.574;2024-02-26T05:15:01;1.67;;;0.90;;
75446;SDS011;64024;55.820;37.574;2024-02-26T05:17:27;1.85;;;1.10;;
75446;SDS011;64024;55.820;37.574;2024-02-26T05:19:53;3.83;;;0.95;;
75446;SDS011;64024;55.820;37.574;2024-02-26T05:22:19;2.22;;;0.95;;
75446;SDS011;64024;55.820;37.574;2024-02-26T05:24:45;2.00;;;0.80;;
75446;SDS011;64024;55.820;37.574;2024-02-26T05:27:10;2.22;;;0.80;;
75446;SDS011;64024;55.820;37.574;2024-02-26T05:29:37;2.28;;;1.02;;
75446;SDS011;64024;55.820;37.574;2024-02-26T05:32:03;2.05;;;1.17;;
75446;SDS011;64024;55.820;37.574;2024-02-26T05:34:30;1.88;;;0.98;;
75446;SDS011;64024;55.820;37.574;2024-02-26T05:36:56;1.67;;;0.90;;
75446;SDS011;64024;55.820;37.574;2024-02-26T05:39:22;2.80;;;0.98;;
75446;SDS011;64024;55.820;37.574;2024-02-26T05:41:48;1.90;;;0.80;;
75446;SDS011;64024;55.820;37.574;2024-02-26T05:44:14;2.00;;;1.00;;
75446;SDS011;64024;55.820;37.574;2024-02-26T05:46:41;1.85;;;0.82;;
75446;SDS011;64024;55.820;37.574;2024-02-26T05:49:07;3.00;;;0.95;;
75446;SDS011;64024;55.820;37.574;2024-02-26T05:51:33;1.70;;;0.95;;
75446;SDS011;64024;55.820;37.574;2024-02-26T05:53:59;1.83;;;0.73;;
75446;SDS011;64024;55.820;37.574;2024-02-26T05:56:24;1.52;;;0.80;;
75446;SDS011;64024;55.820;37.574;2024-02-26T05:58:50;1.92;;;0.98;;
75446;SDS011;64024;55.820;37.574;2024-02-26T06:01:16;1.90;;;1.17;;
75446;SDS011;64024;55.820;37.574;2024-02-26T06:03:43;2.95;;;0.90;;
75446;SDS011;64024;55.820;37.574;2024-02-26T06:06:10;3.25;;;2.47;;
75446;SDS011;64024;55.820;37.574;2024-02-26T06:08:36;2.00;;;0.88;;
75446;SDS011;64024;55.820;37.574;2024-02-26T06:11:05;1.95;;;1.00;;
75446;SDS011;64024;55.820;37.574;2024-02-26T06:13:32;1.98;;;0.90;;
75446;SDS011;64024;55.820;37.574;2024-02-26T06:15:58;1.98;;;1.00;;
75446;SDS011;64024;55.820;37.574;2024-02-26T06:18:24;2.42;;;1.30;;
75446;SDS011;64024;55.820;37.574;2024-02-26T06:20:50;4.30;;;1.60;;
75446;SDS011;64024;55.820;37.574;2024-02-26T06:23:15;4.03;;;1.83;;
75446;SDS011;64024;55.820;37.574;2024-02-26T06:25:41;2.78;;;1.45;;
75446;SDS011;64024;55.820;37.574;2024-02-26T06:28:10;4.78;;;1.63;;
75446;SDS011;64024;55.820;37.574;2024-02-26T06:30:36;2.58;;;1.85;;
75446;SDS011;64024;55.820;37.574;2024-02-26T06:33:03;6.70;;;1.40;;
75446;SDS011;64024;55.820;37.574;2024-02-26T06:35:29;2.47;;;1.38;;
75446;SDS011;64024;55.820;37.574;2024-02-26T06:37:54;1.73;;;1.08;;
75446;SDS011;64024;55.820;37.574;2024-02-26T06:40:20;2.03;;;1.02;;
75446;SDS011;64024;55.820;37.574;2024-02-26T06:42:46;3.58;;;1.50;;
75446;SDS011;64024;55.820;37.574;2024-02-26T06:45:12;3.15;;;1.85;;
75446;SDS011;64024;55.820;37.574;2024-02-26T06:47:38;3.03;;;1.33;;
75446;SDS011;64024;55.820;37.574;2024-02-26T06:50:03;1.85;;;1.15;;
75446;SDS011;64024;55.820;37.574;2024-02-26T06:52:29;3.97;;;1.20;;
75446;SDS011;64024;55.820;37.574;2024-02-26T06:54:55;2.28;;;1.33;;
75446;SDS011;64024;55.820;37.574;2024-02-26T06:57:21;2.53;;;1.60;;
75446;SDS011;64024;55.820;37.574;2024-02-26T06:59:47;4.35;;;1.52;;
75446;SDS011;64024;55.820;37.574;2024-02-26T07:02:15;4.28;;;3.22;;
75446;SDS011;64024;55.820;37.574;2024-02-26T07:04:42;3.30;;;1.75;;
75446;SDS011;64024;55.820;37.574;2024-02-26T07:07:08;2.80;;;1.92;;
75446;SDS011;64024;55.820;37.574;2024-02-26T07:09:34;2.78;;;1.30;;
75446;SDS011;64024;55.820;37.574;2024-02-26T07:12:00;2.25;;;1.60;;
75446;SDS011;64024;55.820;37.574;2024-02-26T07:14:25;2.42;;;1.40;;
75446;SDS011;64024;55.820;37.574;2024-02-26T07:16:52;2.25;;;1.38;;
75446;SDS011;64024;55.820;37.574;2024-02-26T07:19:18;2.10;;;1.10;;
75446;SDS011;64024;55.820;37.574;2024-02-26T07:21:43;2.00;;;1.02;;
75446;SDS011;64024;55.820;37.574;2024-02-26T07:24:10;2.38;;;1.30;;
75446;SDS011;64024;55.820;37.574;2024-02-26T07:26:35;1.98;;;1.42;;
75446;SDS011;64024;55.820;37.574;2024-02-26T07:29:01;2.78;;;1.08;;
75446;SDS011;64024;55.820;37.574;2024-02-26T07:31:27;1.88;;;1.13;;
75446;SDS011;64024;55.820;37.574;2024-02-26T07:33:53;1.98;;;1.10;;
75446;SDS011;64024;55.820;37.574;2024-02-26T07:36:18;2.45;;;1.10;;
75446;SDS011;64024;55.820;37.574;2024-02-26T07:38:44;2.60;;;1.35;;
75446;SDS011;64024;55.820;37.574;2024-02-26T07:41:10;3.70;;;1.27;;
75446;SDS011;64024;55.820;37.574;2024-02-26T07:43:36;2.53;;;1.27;;
75446;SDS011;64024;55.820;37.574;2024-02-26T07:46:06;2.50;;;1.17;;
75446;SDS011;64024;55.820;37.574;2024-02-26T07:48:32;2.90;;;1.30;;
75446;SDS011;64024;55.820;37.574;2024-02-26T07:50:57;2.72;;;1.73;;
75446;SDS011;64024;55.820;37.574;2024-02-26T07:53:25;1.77;;;1.20;;
75446;SDS011;64024;55.820;37.574;2024-02-26T07:55:50;2.17;;;1.50;;
75446;SDS011;64024;55.820;37.574;2024-02-26T07:58:16;2.55;;;1.02;;
75446;SDS011;64024;55.820;37.574;2024-02-26T08:00:42;2.25;;;1.13;;
75446;SDS011;64024;55.820;37.574;2024-02-26T08:03:07;2.35;;;1.30;;
75446;SDS011;64024;55.820;37.574;2024-02-26T08:05:33;2.72;;;1.20;;
75446;SDS011;64024;55.820;37.574;2024-02-26T08:07:58;2.20;;;1.30;;
75446;SDS011;64024;55.820;37.574;2024-02-26T08:10:24;3.13;;;1.63;;
75446;SDS011;64024;55.820;37.574;2024-02-26T08:12:50;2.97;;;1.77;;
75446;SDS011;64024;55.820;37.574;2024-02-26T08:15:15;1.63;;;0.95;;
75446;SDS011;64024;55.820;37.574;2024-02-26T08:17:41;3.70;;;1.10;;
75446;SDS011;64024;55.820;37.574;2024-02-26T08:20:07;5.15;;;1.17;;
75446;SDS011;64024;55.820;37.574;2024-02-26T08:22:33;1.60;;;1.02;;
75446;SDS011;64024;55.820;37.574;2024-02-26T08:24:59;3.30;;;1.70;;
75446;SDS011;64024;55.820;37.574;2024-02-26T08:27:25;1.77;;;1.13;;
75446;SDS011;64024;55.820;37.574;2024-02-26T08:29:51;1.67;;;1.10;;
75446;SDS011;64024;55.820;37.574;2024-02-26T08:32:16;2.40;;;1.40;;
75446;SDS011;64024;55.820;37.574;2024-02-26T08:34:42;1.50;;;1.10;;
75446;SDS011;64024;55.820;37.574;2024-02-26T08:37:08;3.97;;;1.38;;
75446;SDS011;64024;55.820;37.574;2024-02-26T08:39:33;2.13;;;1.10;;
75446;SDS011;64024;55.820;37.574;2024-02-26T08:41:59;2.63;;;1.10;;
75446;SDS011;64024;55.820;37.574;2024-02-26T08:44:25;2.00;;;1.27;;
75446;SDS011;64024;55.820;37.574;2024-02-26T08:46:51;5.15;;;1.80;;
75446;SDS011;64024;55.820;37.574;2024-02-26T08:49:17;3.38;;;1.40;;
75446;SDS011;64024;55.820;37.574;2024-02-26T08:51:42;2.53;;;1.48;;
75446;SDS011;64024;55.820;37.574;2024-02-26T08:54:11;3.28;;;1.30;;
75446;SDS011;64024;55.820;37.574;2024-02-26T08:56:37;2.70;;;1.42;;
75446;SDS011;64024;55.820;37.574;2024-02-26T08:59:03;3.05;;;1.60;;
75446;SDS011;64024;55.820;37.574;2024-02-26T09:01:31;2.38;;;1.42;;
75446;SDS011;64024;55.820;37.574;2024-02-26T09:03:58;2.75;;;1.48;;
75446;SDS011;64024;55.820;37.574;2024-02-26T09:06:24;2.58;;;1.38;;
75446;SDS011;64024;55.820;37.574;2024-02-26T09:08:50;3.08;;;1.20;;
75446;SDS011;64024;55.820;37.574;2024-02-26T09:11:15;2.53;;;1.65;;
75446;SDS011;64024;55.820;37.574;2024-02-26T09:13:41;5.88;;;1.10;;
75446;SDS011;64024;55.820;37.574;2024-02-26T09:16:07;4.93;;;1.88;;
75446;SDS011;64024;55.820;37.574;2024-02-26T09:18:33;3.55;;;1.25;;
75446;SDS011;64024;55.820;37.574;2024-02-26T09:20:59;5.25;;;1.30;;
75446;SDS011;64024;55.820;37.574;2024-02-26T09:23:25;1.77;;;1.05;;
75446;SDS011;64024;55.820;37.574;2024-02-26T09:25:50;2.13;;;1.05;;
75446;SDS011;64024;55.820;37.574;2024-02-26T09:28:16;2.55;;;1.52;;
75446;SDS011;64024;55.820;37.574;2024-02-26T09:30:45;2.08;;;1.08;;
75446;SDS011;64024;55.820;37.574;2024-02-26T09:33:10;3.38;;;1.13;;
75446;SDS011;64024;55.820;37.574;2024-02-26T09:35:36;4.00;;;1.55;;
75446;SDS011;64024;55.820;37.574;2024-02-26T09:38:04;1.60;;;0.90;;
75446;SDS011;64024;55.820;37.574;2024-02-26T09:40:29;1.50;;;1.00;;
75446;SDS011;64024;55.820;37.574;2024-02-26T09:42:58;3.03;;;1.10;;
75446;SDS011;64024;55.820;37.574;2024-02-26T09:45:26;2.25;;;1.02;;
75446;SDS011;64024;55.820;37.574;2024-02-26T09:47:55;1.63;;;0.90;;
75446;SDS011;64024;55.820;37.574;2024-02-26T09:50:21;2.38;;;1.20;;
75446;SDS011;64024;55.820;37.574;2024-02-26T09:52:51;2.55;;;1.23;;
75446;SDS011;64024;55.820;37.574;2024-02-26T09:55:18;1.98;;;1.60;;
75446;SDS011;64024;55.820;37.574;2024-02-26T09:57:45;2.95;;;1.48;;
75446;SDS011;64024;55.820;37.574;2024-02-26T10:00:16;1.95;;;0.90;;
75446;SDS011;64024;55.820;37.574;2024-02-26T10:02:47;2.20;;;1.10;;
75446;SDS011;64024;55.820;37.574;2024-02-26T10:05:17;2.67;;;1.02;;
75446;SDS011;64024;55.820;37.574;2024-02-26T10:07:44;3.15;;;1.30;;
75446;SDS011;64024;55.820;37.574;2024-02-26T10:10:11;1.70;;;0.88;;
75446;SDS011;64024;55.820;37.574;2024-02-26T10:12:38;2.03;;;1.10;;
75446;SDS011;64024;55.820;37.574;2024-02-26T10:15:03;1.88;;;1.00;;
75446;SDS011;64024;55.820;37.574;2024-02-26T10:17:29;2.28;;;0.95;;
75446;SDS011;64024;55.820;37.574;2024-02-26T10:20:03;2.15;;;1.17;;
75446;SDS011;64024;55.820;37.574;2024-02-26T10:22:42;2.25;;;1.00;;
75446;SDS011;64024;55.820;37.574;2024-02-26T10:25:08;1.70;;;0.85;;
75446;SDS011;64024;55.820;37.574;2024-02-26T10:27:34;3.38;;;1.05;;
75446;SDS011;64024;55.820;37.574;2024-02-26T10:30:04;1.50;;;0.90;;
75446;SDS011;64024;55.820;37.574;2024-02-26T10:32:42;2.08;;;1.02;;
75446;SDS011;64024;55.820;37.574;2024-02-26T10:35:09;1.90;;;1.20;;
75446;SDS011;64024;55.820;37.574;2024-02-26T10:37:35;2.05;;;1.38;;
75446;SDS011;64024;55.820;37.574;2024-02-26T10:40:01;2.08;;;1.42;;
75446;SDS011;64024;55.820;37.574;2024-02-26T10:42:28;1.80;;;1.08;;
75446;SDS011;64024;55.820;37.574;2024-02-26T10:44:55;1.70;;;1.02;;
75446;SDS011;64024;55.820;37.574;2024-02-26T10:47:23;2.20;;;1.17;;
75446;SDS011;64024;55.820;37.574;2024-02-26T10:49:50;2.38;;;1.20;;
75446;SDS011;64024;55.820;37.574;2024-02-26T10:52:17;1.27;;;0.85;;
75446;SDS011;64024;55.820;37.574;2024-02-26T10:54:45;1.35;;;0.85;;
75446;SDS011;64024;55.820;37.574;2024-02-26T10:57:13;2.60;;;1.25;;
75446;SDS011;64024;55.820;37.574;2024-02-26T10:59:43;1.77;;;1.08;;
75446;SDS011;64024;55.820;37.574;2024-02-26T11:02:10;2.78;;;1.13;;
75446;SDS011;64024;55.820;37.574;2024-02-26T11:04:36;2.72;;;1.30;;
75446;SDS011;64024;55.820;37.574;2024-02-26T11:07:03;1.92;;;1.10;;
75446;SDS011;64024;55.820;37.574;2024-02-26T11:09:31;2.67;;;1.52;;
75446;SDS011;64024;55.820;37.574;2024-02-26T11:11:57;2.17;;;1.00;;
75446;SDS011;64024;55.820;37.574;2024-02-26T11:14:25;2.42;;;1.23;;
75446;SDS011;64024;55.820;37.574;2024-02-26T11:16:51;1.90;;;1.17;;
75446;SDS011;64024;55.820;37.574;2024-02-26T11:19:17;1.90;;;1.13;;
75446;SDS011;64024;55.820;37.574;2024-02-26T11:21:44;2.38;;;1.20;;
75446;SDS011;64024;55.820;37.574;2024-02-26T11:24:11;2.15;;;1.20;;
75446;SDS011;64024;55.820;37.574;2024-02-26T11:26:43;7.00;;;1.55;;
75446;SDS011;64024;55.820;37.574;2024-02-26T11:29:24;2.45;;;1.00;;
75446;SDS011;64024;55.820;37.574;2024-02-26T11:31:53;2.63;;;1.60;;
75446;SDS011;64024;55.820;37.574;2024-02-26T11:34:19;2.58;;;1.30;;
75446;SDS011;64024;55.820;37.574;2024-02-26T11:36:46;2.35;;;1.30;;
75446;SDS011;64024;55.820;37.574;2024-02-26T11:39:12;2.42;;;1.35;;
75446;SDS011;64024;55.820;37.574;2024-02-26T11:41:42;3.35;;;1.58;;
75446;SDS011;64024;55.820;37.574;2024-02-26T11:44:08;3.00;;;1.70;;
75446;SDS011;64024;55.820;37.574;2024-02-26T11:46:40;2.58;;;1.30;;
75446;SDS011;64024;55.820;37.574;2024-02-26T11:51:57;2.05;;;1.10;;
75446;SDS011;64024;55.820;37.574;2024-02-26T11:57:21;3.15;;;1.30;;
75446;SDS011;64024;55.820;37.574;2024-02-26T11:59:51;2.17;;;1.00;;
75446;SDS011;64024;55.820;37.574;2024-02-26T12:05:19;2.35;;;1.48;;
75446;SDS011;64024;55.820;37.574;2024-02-26T12:07:54;2.53;;;1.38;;
75446;SDS011;64024;55.820;37.574;2024-02-26T12:10:28;1.70;;;1.00;;
75446;SDS011;64024;55.820;37.574;2024-02-26T12:15:42;2.47;;;1.33;;
75446;SDS011;64024;55.820;37.574;2024-02-26T12:18:21;1.77;;;1.38;;
75446;SDS011;64024;55.820;37.574;2024-02-26T12:21:09;3.05;;;1.30;;
75446;SDS011;64024;55.820;37.574;2024-02-26T12:23:37;3.65;;;1.30;;
75446;SDS011;64024;55.820;37.574;2024-02-26T12:26:03;3.28;;;1.42;;
75446;SDS011;64024;55.820;37.574;2024-02-26T12:28:29;2.15;;;1.23;;
75446;SDS011;64024;55.820;37.574;2024-02-26T12:30:55;2.35;;;1.58;;
75446;SDS011;64024;55.820;37.574;2024-02-26T12:33:24;1.67;;;1.10;;
75446;SDS011;64024;55.820;37.574;2024-02-26T12:35:51;2.47;;;1.35;;
75446;SDS011;64024;55.820;37.574;2024-02-26T12:38:18;1.90;;;1.13;;
75446;SDS011;64024;55.820;37.574;2024-02-26T12:40:44;2.20;;;1.20;;
75446;SDS011;64024;55.820;37.574;2024-02-26T12:43:10;3.17;;;1.23;;
75446;SDS011;64024;55.820;37.574;2024-02-26T12:45:41;2.88;;;1.00;;
75446;SDS011;64024;55.820;37.574;2024-02-26T12:48:07;1.90;;;1.20;;
75446;SDS011;64024;55.820;37.574;2024-02-26T12:50:34;3.10;;;1.20;;
75446;SDS011;64024;55.820;37.574;2024-02-26T12:52:59;3.47;;;1.48;;
75446;SDS011;64024;55.820;37.574;2024-02-26T12:55:25;2.72;;;1.30;;
75446;SDS011;64024;55.820;37.574;2024-02-26T12:57:52;1.60;;;1.10;;
75446;SDS011;64024;55.820;37.574;2024-02-26T13:00:21;3.03;;;1.48;;
75446;SDS011;64024;55.820;37.574;2024-02-26T13:02:50;3.05;;;1.30;;
75446;SDS011;64024;55.820;37.574;2024-02-26T13:05:17;2.45;;;1.67;;
75446;SDS011;64024;55.820;37.574;2024-02-26T13:07:45;3.10;;;1.20;;
75446;SDS011;64024;55.820;37.574;2024-02-26T13:10:15;1.98;;;1.23;;
75446;SDS011;64024;55.820;37.574;2024-02-26T13:12:43;2.42;;;1.40;;
75446;SDS011;64024;55.820;37.574;2024-02-26T13:15:13;2.70;;;1.30;;
75446;SDS011;64024;55.820;37.574;2024-02-26T13:17:40;1.77;;;1.17;;
75446;SDS011;64024;55.820;37.574;2024-02-26T13:20:07;2.13;;;1.00;;
75446;SDS011;64024;55.820;37.574;2024-02-26T13:22:38;2.53;;;1.20;;
75446;SDS011;64024;55.820;37.574;2024-02-26T13:25:03;1.75;;;0.93;;
75446;SDS011;64024;55.820;37.574;2024-02-26T13:27:32;3.17;;;1.60;;
75446;SDS011;64024;55.820;37.574;2024-02-26T13:30:11;2.03;;;1.15;;
75446;SDS011;64024;55.820;37.574;2024-02-26T13:32:38;2.55;;;1.30;;
75446;SDS011;64024;55.820;37.574;2024-02-26T13:35:08;2.90;;;1.30;;
75446;SDS011;64024;55.820;37.574;2024-02-26T13:37:38;1.88;;;1.20;;
75446;SDS011;64024;55.820;37.574;2024-02-26T13:40:05;2.17;;;1.25;;
75446;SDS011;64024;55.820;37.574;2024-02-26T13:42:32;2.22;;;1.20;;
75446;SDS011;64024;55.820;37.574;2024-02-26T13:44:58;3.30;;;1.40;;
75446;SDS011;64024;55.820;37.574;2024-02-26T13:47:24;2.03;;;1.17;;
75446;SDS011;64024;55.820;37.574;2024-02-26T13:49:49;4.60;;;1.58;;
75446;SDS011;64024;55.820;37.574;2024-02-26T13:52:15;2.50;;;1.30;;
75446;SDS011;64024;55.820;37.574;2024-02-26T13:54:41;2.20;;;1.38;;
75446;SDS011;64024;55.820;37.574;2024-02-26T13:57:07;3.03;;;1.65;;
75446;SDS011;64024;55.820;37.574;2024-02-26T13:59:33;6.45;;;2.33;;
75446;SDS011;64024;55.820;37.574;2024-02-26T14:01:59;2.88;;;1.58;;
75446;SDS011;64024;55.820;37.574;2024-02-26T14:04:26;3.67;;;1.85;;
75446;SDS011;64024;55.820;37.574;2024-02-26T14:06:52;5.35;;;2.75;;
75446;SDS011;64024;55.820;37.574;2024-02-26T14:09:18;4.35;;;2.50;;
75446;SDS011;64024;55.820;37.574;2024-02-26T14:12:01;4.72;;;2.53;;
75446;SDS011;64024;55.820;37.574;2024-02-26T14:14:28;6.95;;;3.30;;
75446;SDS011;64024;55.820;37.574;2024-02-26T14:16:53;5.45;;;3.20;;
75446;SDS011;64024;55.820;37.574;2024-02-26T14:19:19;13.65;;;5.03;;
75446;SDS011;64024;55.820;37.574;2024-02-26T14:21:45;7.57;;;3.30;;
75446;SDS011;64024;55.820;37.574;2024-02-26T14:24:10;8.98;;;4.38;;
75446;SDS011;64024;55.820;37.574;2024-02-26T14:26:36;11.50;;;4.53;;
75446;SDS011;64024;55.820;37.574;2024-02-26T14:29:02;9.15;;;3.75;;
75446;SDS011;64024;55.820;37.574;2024-02-26T14:31:28;6.53;;;3.90;;
75446;SDS011;64024;55.820;37.574;2024-02-26T14:33:54;8.02;;;3.60;;
75446;SDS011;64024;55.820;37.574;2024-02-26T14:36:20;6.40;;;3.60;;
75446;SDS011;64024;55.820;37.574;2024-02-26T14:38:47;6.65;;;3.47;;
75446;SDS011;64024;55.820;37.574;2024-02-26T14:41:13;8.15;;;4.07;;